sim
Sign-in with your pilot id or email,
or register
Callsign
Passwort

Schedule Details

Flight Number: DLH1939 (1)
Departure: Trieste Friuli Venezia Giulia Airport (LIPQ) at 05:10
Arrival: Munich Airport (EDDM) at 06:10
Route: Lufthansa Passenger Schedule. Enter filed route here before submitting Pirep.

Weather Information
Getting current METAR information for LIPQ 220150Z AUTO 05004KT 9999 FEW056/// BKN082/// OVC110/// 17/15 Q1015
Getting current METAR information for EDDM 220150Z 33002KT 3000 1100N R08L/0600N R08R/0800U BCFG NSC 08/08 Q1014 TEMPO 2500

Schedule Frequency

Route Map